Ituporanga, Brazil
Current Conditions -  °F | °C
As of 3:00 PM on Friday 24 Oct 2014 (Local Time) from SBFL Reporting Station
Scattered Clouds Scattered Clouds  
Wind Chill: 79°   Ceiling: Unl
Heat Index: 81°   Visibility: 6mi
Dew Point: 64°   Wind: 15mph
Humidity: 61%   Direction: 350°N
Pressure: 30.24"   Gusts: NA
Location:  27.41°S, 49.6°W
Report Text: SBFL 241700Z 35013KT 9999 SCT025 26/18 Q1024
Loading
Personal Weather Stations






























Interactive Weather Map
Tropical Storm Tracking
New forecast layout! Learn more

10-Day Weather Forecast

Advertisements
Track Severe Weather on mobile